»·PEaware :: N172GW KSBP-KSMX

N172GW :: KSBP-KSMX

FLIGHT INFORMATION

Flight Status: Arrived
Operator: Privately registered:
United States
More flights under this callsign
Pilot: Victor C. (32144)
Aircraft: CESSNA 172 SKYHAWK
(C172)
More flights by this aircraft type
Origin: KSBP San Luis Co Regl
United States
Destination: KSMX Santa Maria Pub/Capt Hancock
United States
More flights between these airports :: More routes between these airports
Route:
File this flight plan on PilotEdge
Remarks:
Altitude:
(Current/Filed)
2,000ft
Speed:
(Current/Filed)
110kts
Departed: 17-Dec-20 01:40 PM
Arrived: 17-Dec-20 01:56 PM
Distance/Time
Traveled:
22nm/0:15
Distance/Time
To Go:
Arrived

Flight Plot

Page will automatically refresh every two minutes.


Map Options




Map Legend


Flown Route
Filed Route
Departure Airport
Arrival Airport
Navaid (VOR, NDB)
Fix

Horizontal Profiles

Position Reports

Time Latitude Longitude Heading Altitude Ground
Speed
17-Dec-20 13:02 35.234253 -120.632689 167 216ft 0kts
17-Dec-20 13:03 35.234253 -120.632689 167 216ft 0kts
17-Dec-20 13:04 35.234253 -120.632689 167 216ft 0kts
17-Dec-20 13:04 35.234253 -120.632689 167 216ft 0kts
17-Dec-20 13:06 35.234253 -120.632689 167 216ft 0kts
17-Dec-20 13:07 35.234253 -120.632689 167 216ft 0kts
17-Dec-20 13:08 35.234253 -120.632689 167 216ft 0kts
17-Dec-20 13:08 35.234253 -120.632689 167 216ft 0kts
17-Dec-20 13:10 35.234253 -120.632689 167 216ft 0kts
17-Dec-20 13:11 35.234253 -120.632689 167 216ft 0kts
17-Dec-20 13:11 35.234253 -120.632689 167 216ft 0kts
17-Dec-20 13:12 35.234253 -120.632689 167 216ft 0kts
17-Dec-20 13:13 35.234253 -120.632689 167 216ft 0kts
17-Dec-20 13:14 35.234253 -120.632689 167 216ft 0kts
17-Dec-20 13:15 35.234252 -120.632689 167 216ft 0kts
17-Dec-20 13:16 35.234252 -120.632689 167 216ft 0kts
17-Dec-20 13:17 35.234252 -120.632689 167 216ft 0kts
17-Dec-20 13:18 35.234252 -120.632689 167 216ft 0kts
17-Dec-20 13:19 35.234252 -120.632689 167 216ft 0kts
17-Dec-20 13:20 35.234252 -120.632689 167 216ft 0kts
17-Dec-20 13:21 35.234377 -120.633431 300 215ft 0kts
17-Dec-20 13:22 35.234377 -120.633431 300 215ft 0kts
17-Dec-20 13:23 35.234377 -120.633431 300 215ft 0kts
17-Dec-20 13:24 35.234377 -120.633431 300 215ft 0kts
17-Dec-20 13:25 35.234377 -120.633431 300 215ft 0kts
17-Dec-20 13:26 35.234377 -120.633431 300 215ft 0kts
17-Dec-20 13:27 35.234377 -120.633431 300 215ft 0kts
17-Dec-20 13:28 35.234377 -120.633431 300 215ft 0kts
17-Dec-20 13:29 35.234377 -120.633431 300 215ft 0kts
17-Dec-20 13:30 35.234377 -120.633431 300 215ft 0kts
17-Dec-20 13:32 35.234377 -120.633431 300 215ft 0kts
17-Dec-20 13:32 35.234377 -120.633431 300 215ft 0kts
17-Dec-20 13:33 35.234121 -120.633451 125 215ft 9kts
17-Dec-20 13:34 35.233172 -120.632097 262 219ft 0kts
17-Dec-20 13:35 35.233172 -120.632097 262 219ft 0kts
17-Dec-20 13:36 35.233212 -120.632449 215 219ft 0kts
17-Dec-20 13:37 35.233212 -120.632449 215 219ft 0kts
17-Dec-20 13:38 35.233212 -120.632449 215 219ft 0kts
17-Dec-20 13:39 35.240339 -120.645725 306 354ft 92kts
17-Dec-20 13:40 35.237820 -120.666148 162 1020ft 114kts
17-Dec-20 13:41 35.210150 -120.644749 149 1619ft 118kts
17-Dec-20 13:42 35.182494 -120.622829 141 1789ft 123kts
17-Dec-20 13:43 35.159165 -120.596788 144 2154ft 111kts
17-Dec-20 13:44 35.131079 -120.574980 148 2193ft 117kts
17-Dec-20 13:45 35.102243 -120.554892 155 2268ft 121kts
17-Dec-20 13:46 35.073551 -120.535928 156 2281ft 103kts
17-Dec-20 13:47 35.049215 -120.514257 150 1988ft 110kts
17-Dec-20 13:48 35.023069 -120.497804 162 1739ft 94kts
17-Dec-20 13:49 35.001172 -120.485827 166 1484ft 80kts
17-Dec-20 13:50 34.979169 -120.473533 172 1389ft 97kts
17-Dec-20 13:51 34.952514 -120.464200 172 1236ft 102kts
17-Dec-20 13:52 34.926827 -120.454614 171 1232ft 94kts
17-Dec-20 13:53 34.901619 -120.439666 157 951ft 95kts
17-Dec-20 13:54 34.888614 -120.440852 306 529ft 75kts
17-Dec-20 13:55 34.898208 -120.452399 318 245ft 31kts
17-Dec-20 13:56 34.900699 -120.453521 27 241ft 0kts
17-Dec-20 13:57 34.900699 -120.453521 27 241ft 0kts
17-Dec-20 13:58 34.900699 -120.453521 27 241ft 0kts
17-Dec-20 13:59 34.900699 -120.453521 27 241ft 0kts
17-Dec-20 14:00 34.900700 -120.453520 25 241ft 0kts

Navigation Log

Ident Type
Flight plan parsing failed, navigation log unavailable